Latest Weather Observations for Central Arnhem Plateau

IDD60801

Issued at 8:31 am CST Tuesday 3 May 2016 (issued every 30 minutes, with the page automatically refreshed every 10 minutes)

About weather observations | Map of weather stations | Latest weather observations for NT | Other Formats
Station Details ID: 014909 Name: CENTRAL ARNHEM PLATEAU Lat: -13.33 Lon: 133.09 Height: 416.0 m
Data from the previous 72 hours. | See also: Recent months at Central Arnhem Plateau
Date/Time
CST
Temp
°C
App
Temp
°C
Dew
Point
Rel
Hum
%
Delta-T
°C
Wind Press
QNH
hPa
Press
MSL
hPa
Rain
since 9 am
mm
Dir
 
Spd
km/h
Gust
km/h
Spd
kts
Gust
kts
03/08:30am 25.8 28.0 21.9 79 2.6 ENE 13 17 7 9 1015.7 1013.3 0.4
03/08:00am 24.5 26.7 21.2 82 2.2 ENE 11 15 6 8 1015.7 1013.3 0.4
03/07:30am 23.5 26.3 20.8 85 1.8 E 7 11 4 6 1015.4 1013.0 0.4
03/07:00am 22.8 25.3 20.3 86 1.6 ENE 7 9 4 5 1014.9 1012.5 0.4
03/06:30am 23.1 26.0 20.6 86 1.7 E 6 9 3 5 1014.3 1011.8 0.4
03/06:00am 23.2 25.5 20.7 86 1.7 E 9 11 5 6 1014.0 1011.5 0.4
03/05:30am 23.2 25.8 20.5 85 1.8 ENE 7 9 4 5 1014.0 1011.5 0.4
03/05:00am 23.3 26.0 20.6 85 1.8 SE 7 9 4 5 1013.6 1011.2 0.4
03/04:30am 23.2 25.9 20.7 86 1.7 SE 7 11 4 6 1013.5 1011.1 0.4
03/04:00am 23.4 26.1 20.7 85 1.8 E 7 9 4 5 1013.3 1010.9 0.4
03/03:30am 23.7 27.5 21.0 85 1.8 NE 2 6 1 3 1013.3 1010.9 0.4
03/03:00am 23.8 28.0 20.9 84 1.9 CALM 0 0 0 0 1013.6 1011.2 0.4
03/02:30am 23.8 27.6 20.9 84 1.9 E 2 6 1 3 1014.1 1011.6 0.4
03/02:00am 23.8 26.7 20.7 83 2.1 SE 6 7 3 4 1014.3 1011.8 0.4
03/01:30am 23.8 26.6 20.9 84 1.9 S 7 9 4 5 1014.6 1012.1 0.4
03/01:00am 23.6 25.2 20.7 84 1.9 S 13 15 7 8 1014.5 1012.0 0.4
03/12:30am 24.0 27.8 20.9 83 2.1 ESE 2 6 1 3 1014.7 1012.2 0.4
03/12:00am 24.1 28.3 21.0 83 2.1 CALM 0 0 0 0 1014.6 1012.1 0.4
 
Date/Time
CST
Temp
°C
App
Temp
°C
Dew
Point
Rel
Hum
%
Delta-T
°C
Wind Press
QNH
hPa
Press
MSL
hPa
Rain
since 9 am
mm
Dir
 
Spd
km/h
Gust
km/h
Spd
kts
Gust
kts
02/11:30pm 24.0 27.9 21.1 84 1.9 ESE 2 7 1 4 1015.0 1012.6 0.4
02/11:00pm 23.7 26.1 20.8 84 1.9 ESE 9 11 5 6 1015.7 1013.3 0.4
02/10:30pm 23.8 26.2 20.9 84 1.9 E 9 11 5 6 1016.3 1013.9 0.4
02/10:00pm 24.0 26.5 21.1 84 1.9 E 9 11 5 6 1016.6 1014.1 0.4
02/09:30pm 24.0 26.2 21.1 84 1.9 ENE 11 13 6 7 1016.2 1013.8 0.4
02/09:00pm 23.9 26.4 21.0 84 1.9 ENE 9 13 5 7 1016.2 1013.8 0.4
02/08:30pm 23.6 25.8 20.5 83 2.0 NE 9 13 5 7 1015.4 1013.0 0.4
02/08:00pm 23.5 25.8 20.6 84 1.9 ESE 9 13 5 7 1015.4 1013.0 0.4
02/07:30pm 23.3 23.9 20.2 83 2.0 NE 17 30 9 16 1015.0 1012.6 0.4
02/07:00pm 25.4 22.6 19.1 68 4.1 NE 32 48 17 26 1014.8 1012.4 0.0
02/06:55pm 26.1 25.0 19.5 67 4.3 NNE 24 48 13 26 1014.6 1012.1 0.0
02/06:30pm 28.6 29.4 19.8 59 5.8 NNE 15 20 8 11 1013.6 1011.2 0.0
02/06:00pm 29.9 31.5 19.9 55 6.7 SE 11 13 6 7 1013.1 1010.7 0.0
02/05:30pm 30.2 31.5 19.3 52 7.2 ESE 11 15 6 8 1012.4 1009.9 0.0
02/05:00pm 30.4 31.6 19.1 50 7.5 E 11 17 6 9 1012.0 1009.5 0.0
02/04:30pm 31.6 32.7 17.9 44 8.9 NNE 9 15 5 8 1011.6 1009.1 0.0
02/04:00pm 32.1 33.5 18.7 45 8.8 NNE 9 17 5 9 1011.6 1009.1 0.0
02/03:30pm 31.5 32.4 19.2 48 8.2 NNE 13 26 7 14 1011.9 1009.4 0.0
02/03:00pm 31.7 32.2 18.3 45 8.8 NE 13 20 7 11 1012.1 1009.6 0.0
02/02:30pm 31.6 32.0 18.9 47 8.4 NNE 15 20 8 11 1012.3 1009.8 0.0
02/02:00pm 31.3 31.3 19.0 48 8.1 ENE 17 28 9 15 1012.7 1010.3 0.0
02/01:30pm 30.9 30.5 18.9 48 7.9 ENE 19 30 10 16 1013.0 1010.6 0.0
02/01:00pm 30.8 30.5 19.5 51 7.5 NE 20 30 11 16 1013.3 1010.9 0.0
02/12:30pm 30.5 29.7 19.2 51 7.5 NE 22 32 12 17 1014.2 1011.7 0.0
02/12:00pm 29.5 29.3 19.8 56 6.5 ENE 20 28 11 15 1014.7 1012.2 0.0
02/11:30am 29.9 28.5 19.6 54 6.8 NE 26 37 14 20 1014.8 1012.4 0.0
02/11:00am 29.5 29.1 20.1 57 6.3 ENE 22 33 12 18 1015.0 1012.6 0.0
02/10:30am 28.3 27.6 20.3 62 5.3 NE 24 33 13 18 1015.0 1012.6 0.0
02/10:00am 28.0 27.7 20.3 63 5.1 ENE 22 33 12 18 1015.1 1012.7 0.0
02/09:30am 26.5 26.7 20.6 70 3.9 ENE 20 26 11 14 1015.1 1012.7 0.0
02/09:00am 25.4 26.4 21.1 77 2.9 ENE 17 20 9 11 1014.9 1012.5 0.4
02/08:30am 24.7 26.4 21.0 80 2.5 ENE 13 17 7 9 1014.8 1012.4 0.4
02/08:00am 24.2 25.9 20.9 82 2.2 E 13 17 7 9 1014.5 1012.0 0.4
02/07:30am 23.9 25.5 20.8 83 2.1 E 13 17 7 9 1014.3 1011.8 0.4
02/07:00am 23.6 25.6 20.7 84 1.9 ENE 11 15 6 8 1014.1 1011.6 0.4
02/06:30am 23.7 25.2 20.6 83 2.1 E 13 17 7 9 1013.4 1011.0 0.4
02/06:00am 23.9 25.5 20.8 83 2.1 ENE 13 19 7 10 1013.3 1010.9 0.4
02/05:30am 24.2 25.1 20.9 82 2.2 ENE 17 28 9 15 1013.1 1010.7 0.4
02/05:00am 24.3 25.6 20.8 81 2.3 E 15 20 8 11 1013.1 1010.7 0.4
02/04:30am 24.3 25.6 20.8 81 2.3 E 15 20 8 11 1012.9 1010.5 0.4
02/04:00am 24.3 25.8 20.6 80 2.5 E 13 19 7 10 1012.7 1010.3 0.4
02/03:30am 24.3 25.7 20.4 79 2.6 E 13 20 7 11 1012.6 1010.2 0.4
02/03:00am 24.4 25.8 20.3 78 2.7 E 13 20 7 11 1012.3 1009.8 0.4
02/02:30am 24.6 25.2 20.3 77 2.8 E 17 20 9 11 1012.6 1010.2 0.4
02/02:00am 24.8 25.9 20.5 77 2.9 E 15 20 8 11 1013.0 1010.6 0.4
02/01:30am 25.0 26.4 20.3 75 3.1 E 13 17 7 9 1013.4 1011.0 0.4
02/01:00am 25.2 26.4 20.0 73 3.4 E 13 19 7 10 1013.7 1011.3 0.4
02/12:30am 25.4 26.4 20.2 73 3.4 ESE 15 22 8 12 1014.2 1011.7 0.4
02/12:00am 25.6 26.6 20.2 72 3.6 E 15 20 8 11 1014.3 1011.8 0.4
 
Date/Time
CST
Temp
°C
App
Temp
°C
Dew
Point
Rel
Hum
%
Delta-T
°C
Wind Press
QNH
hPa
Press
MSL
hPa
Rain
since 9 am
mm
Dir
 
Spd
km/h
Gust
km/h
Spd
kts
Gust
kts
01/11:30pm 25.5 26.9 20.3 73 3.4 E 13 17 7 9 1014.5 1012.0 0.4
01/11:00pm 25.6 27.3 20.2 72 3.6 ENE 11 15 6 8 1014.6 1012.1 0.4
01/10:30pm 25.9 27.5 20.0 70 3.9 E 11 15 6 8 1015.0 1012.6 0.4
01/10:00pm 26.1 27.3 20.0 69 4.0 ENE 13 17 7 9 1015.1 1012.7 0.4
01/09:30pm 26.2 28.1 20.5 71 3.8 E 11 13 6 7 1015.2 1012.8 0.4
01/09:00pm 25.9 28.0 20.9 74 3.3 ESE 11 13 6 7 1015.0 1012.6 0.4
01/08:30pm 26.0 28.4 20.8 73 3.5 ESE 9 13 5 7 1014.9 1012.5 0.4
01/08:00pm 25.9 28.2 20.7 73 3.5 ESE 9 11 5 6 1014.3 1011.8 0.4
01/07:30pm 26.1 27.9 20.4 71 3.8 SE 11 15 6 8 1014.1 1011.6 0.4
01/07:00pm 26.5 27.7 20.6 70 3.9 ESE 15 20 8 11 1013.9 1011.4 0.4
01/06:30pm 27.9 28.7 20.7 65 4.8 E 17 22 9 12 1013.3 1010.9 0.4
01/06:00pm 28.3 28.9 21.1 65 4.9 ENE 19 26 10 14 1012.9 1010.5 0.4
01/05:30pm 28.3 29.8 21.3 65 4.7 NE 15 20 8 11 1012.6 1010.2 0.4
01/05:00pm 29.0 29.7 20.4 59 5.8 ENE 17 28 9 15 1011.8 1009.3 0.4
01/04:30pm 30.5 30.3 19.8 52 7.1 ESE 20 28 11 15 1011.2 1008.8 0.4
01/04:00pm 30.5 31.3 21.3 58 6.3 ESE 19 30 10 16 1011.5 1009.0 0.4
01/03:30pm 27.3 27.5 20.6 67 4.5 SE 20 37 11 20 1011.7 1009.2 0.4
01/03:21pm 27.6 25.9 19.7 62 5.2 SE 28 50 15 27 1011.7 1009.2 0.4
01/03:00pm 31.9 31.8 19.9 49 8.1 E 20 30 11 16 1011.7 1009.2 0.0
01/02:30pm 31.6 30.8 19.2 47 8.2 ENE 22 32 12 17 1011.9 1009.4 0.0
01/02:00pm 32.5 32.0 19.0 44 9.0 E 20 32 11 17 1012.2 1009.7 0.0
01/01:30pm 32.0 30.3 18.9 45 8.7 ENE 26 39 14 21 1012.7 1010.3 0.0
01/01:00pm 32.0 29.7 19.3 47 8.4 E 30 43 16 23 1013.0 1010.6 0.0
01/12:30pm 30.6 28.7 19.3 51 7.5 E 28 39 15 21 1013.5 1011.1 0.0
01/12:00pm 30.4 27.6 19.1 50 7.5 E 32 41 17 22 1013.9 1011.4 0.0
01/11:30am 30.6 28.8 19.6 51 7.3 E 28 43 15 23 1014.1 1011.6 0.0
01/11:00am 29.4 28.3 19.4 55 6.6 E 24 37 13 20 1014.5 1012.0 0.0
01/10:30am 28.8 27.3 19.4 56 6.2 ENE 26 37 14 20 1014.9 1012.5 0.0
01/10:00am 28.0 28.1 20.0 61 5.3 E 19 28 10 15 1014.7 1012.2 0.0
01/09:30am 26.8 26.4 20.2 67 4.4 E 22 32 12 17 1014.6 1012.1 0.0
01/09:00am 26.1 26.5 20.9 73 3.5 E 20 26 11 14 1014.5 1011.7 0.8
01/08:30am 25.2 25.6 20.9 77 2.9 E 20 28 11 15 1014.5 1011.7 0.8
01/08:00am 24.3 26.0 21.0 82 2.2 E 13 17 7 9 1014.4 1011.5 0.8
01/07:30am 23.8 26.6 20.9 84 1.9 E 7 9 4 5 1014.7 1011.9 0.8
01/07:00am 23.5 25.9 20.8 85 1.8 ESE 9 13 5 7 1014.4 1011.5 0.8
01/06:30am 23.5 25.9 20.8 85 1.8 ESE 9 13 5 7 1014.3 1011.4 0.8
01/06:00am 23.6 25.6 20.7 84 1.9 ESE 11 15 6 8 1014.1 1011.2 0.8
01/05:30am 23.7 25.7 20.8 84 1.9 ESE 11 15 6 8 1013.6 1010.8 0.8
01/05:00am 23.7 25.6 20.6 83 2.1 ESE 11 15 6 8 1013.4 1010.6 0.8
01/04:30am 23.9 25.4 20.6 82 2.2 SE 13 15 7 8 1013.5 1010.7 0.8
01/04:00am 24.0 26.0 20.7 82 2.2 ESE 11 17 6 9 1013.1 1010.3 0.8
01/03:30am 24.2 25.4 20.7 81 2.3 ESE 15 19 8 10 1013.0 1010.2 0.8
01/03:00am 24.4 25.5 20.5 79 2.6 ESE 15 19 8 10 1013.1 1010.3 0.8
01/02:30am 24.7 25.5 20.6 78 2.7 E 17 20 9 11 1013.1 1010.3 0.8
01/02:00am 24.8 26.0 20.7 78 2.7 E 15 22 8 12 1013.3 1010.5 0.8
01/01:30am 24.7 26.0 20.8 79 2.6 E 15 20 8 11 1013.3 1010.5 0.8
01/01:00am 25.0 25.8 20.7 77 2.9 E 17 24 9 13 1013.4 1010.6 0.8
01/12:30am 25.1 25.5 20.6 76 3.0 E 19 22 10 12 1013.9 1011.0 0.8
01/12:00am 25.1 26.7 20.8 77 2.9 E 13 17 7 9 1014.5 1011.7 0.8
 
Date/Time
CST
Temp
°C
App
Temp
°C
Dew
Point
Rel
Hum
%
Delta-T
°C
Wind Press
QNH
hPa
Press
MSL
hPa
Rain
since 9 am
mm
Dir
 
Spd
km/h
Gust
km/h
Spd
kts
Gust
kts
30/11:30pm 25.0 26.2 20.7 77 2.9 E 15 20 8 11 1014.8 1012.0 0.8
30/11:00pm 25.0 25.7 20.5 76 3.0 ESE 17 22 9 12 1015.1 1012.3 0.8
30/10:30pm 25.1 25.6 20.1 74 3.3 ESE 17 22 9 12 1015.0 1012.2 0.8
30/10:00pm 25.3 26.2 20.1 73 3.4 ESE 15 19 8 10 1014.9 1012.1 0.8
30/09:30pm 25.4 26.7 20.2 73 3.4 SE 13 19 7 10 1014.8 1012.0 0.8
30/09:00pm 25.6 26.8 20.6 74 3.3 ESE 15 20 8 11 1014.6 1011.8 0.8
30/08:30pm 25.4 27.1 20.9 76 3.0 ESE 13 17 7 9 1014.5 1011.7 0.8
30/08:00pm 25.4 26.2 20.6 75 3.2 E 17 24 9 13 1014.4 1011.5 0.8
30/07:30pm 27.1 27.9 21.4 71 3.9 ESE 19 24 10 13 1013.9 1011.0 0.8
30/07:00pm 27.4 29.1 21.0 68 4.3 ESE 13 17 7 9 1013.2 1010.4 0.8
30/06:30pm 27.8 29.1 20.9 66 4.6 ESE 15 20 8 11 1012.7 1009.9 0.8
30/06:00pm 28.1 29.8 21.6 68 4.4 SE 15 19 8 10 1012.7 1009.9 0.8
30/05:30pm 28.2 30.0 21.2 65 4.7 SE 13 17 7 9 1012.3 1009.5 0.8
30/05:00pm 27.6 29.5 21.4 69 4.2 ESE 13 17 7 9 1011.9 1009.0 0.8
30/04:30pm 26.6 27.8 21.4 73 3.5 ENE 17 22 9 12 1011.8 1008.9 0.8
30/04:00pm 27.3 28.1 21.8 72 3.7 E 20 32 11 17 1011.9 1009.0 0.8
30/03:30pm 29.9 29.4 19.9 55 6.7 ESE 22 32 12 17 1011.6 1008.7 0.0
30/03:00pm 30.4 33.6 20.6 55 6.6 E 4 9 2 5 1011.7 1008.8 0.0
30/02:30pm 31.6 31.9 19.6 49 8.0 ENE 17 24 9 13 1012.0 1009.1 0.0
30/02:00pm 30.9 31.7 21.4 57 6.5 ENE 19 26 10 14 1012.5 1009.7 0.0
30/01:30pm 30.4 29.5 19.1 50 7.5 E 22 43 12 23 1012.7 1009.9 0.0
30/01:00pm 31.9 32.1 18.5 45 8.8 E 15 26 8 14 1013.0 1010.2 0.0
30/12:30pm 31.8 31.2 18.4 45 8.8 NE 19 30 10 16 1013.7 1010.9 0.0
30/12:00pm 31.7 31.5 19.3 47 8.2 E 19 26 10 14 1014.4 1011.5 0.0
30/11:30am 31.2 30.8 18.9 48 8.1 E 19 28 10 15 1014.9 1012.1 0.0
30/11:00am 31.0 29.9 17.3 43 8.8 ENE 19 30 10 16 1015.2 1012.4 0.0
30/10:30am 30.8 29.2 17.5 45 8.6 E 22 32 12 17 1015.6 1012.8 0.0
30/10:00am 30.3 28.2 16.3 42 8.9 E 22 28 12 15 1015.7 1012.9 0.0
30/09:30am 29.2 29.2 18.0 51 7.3 E 15 20 8 11 1016.0 1013.2 0.0
30/09:00am 27.5 27.5 18.2 57 6.0 E 15 20 8 11 1015.9 1013.1 0.0

Other Formats:

Comma delimited format used in spreadsheet applications
http://www.bom.gov.au/fwo/IDD60801/IDD60801.94141.axf

JavaScript Object Notation format (JSON) in row-major order
http://www.bom.gov.au/fwo/IDD60801/IDD60801.94141.json